Time;durP1;ratioP1;P1;durP2;ratioP2;P2;SDS_P1;SDS_P2;PMS_P1;PMS_P2;Temp;Humidity;BMP_temperature;BMP_pressure;BME280_temperature;BME280_humidity;BME280_pressure;Samples;Min_cycle;Max_cycle;Signal;HPM_P1;HPM_P2
2022/09/09 00:01:13;;;;;;;101.40;58.67;;;16.10;99.90;;;;;;5031651;28;20056;-82
2022/09/09 00:03:51;;;;;;;137.48;89.70;;;16.10;99.90;;;;;;5031219;28;20124;-75
2022/09/09 00:06:44;;;;;;;105.97;81.03;;;16.10;99.90;;;;;;5032895;28;20081;-82
2022/09/09 00:09:17;;;;;;;76.30;58.53;;;16.10;99.90;;;;;;5032584;28;20037;-82
2022/09/09 00:11:43;;;;;;;;;;;16.10;99.90;;;;;;5031822;28;20371;-75
2022/09/09 00:14:30;;;;;;;57.15;31.08;;;16.10;99.90;;;;;;5051974;28;19940;-82
2022/09/09 00:17:19;;;;;;;37.05;25.00;;;16.10;99.90;;;;;;5051359;28;20085;-74
2022/09/09 00:19:56;;;;;;;51.28;28.33;;;16.00;99.90;;;;;;5052294;27;20045;-75
2022/09/09 00:22:26;;;;;;;45.33;27.33;;;16.00;99.90;;;;;;5051160;28;20017;-82
2022/09/09 00:25:01;;;;;;;33.83;23.60;;;16.00;99.90;;;;;;5050740;28;20025;-75
2022/09/09 00:27:45;;;;;;;26.95;19.38;;;16.00;99.90;;;;;;5051094;28;20017;-74
2022/09/09 00:30:11;;;;;;;34.92;22.23;;;16.00;99.90;;;;;;5049096;28;20041;-83
2022/09/09 00:32:37;;;;;;;26.00;18.00;;;16.00;99.90;;;;;;5032414;28;20498;-75
2022/09/09 00:35:10;;;;;;;33.47;22.45;;;16.00;99.90;;;;;;5030946;28;20126;-76
2022/09/09 00:37:35;;;;;;;51.80;35.63;;;16.00;99.90;;;;;;5030965;28;20033;-75
2022/09/09 00:40:18;;;;;;;57.67;43.03;;;16.00;99.90;;;;;;5031012;28;20438;-82
2022/09/09 00:42:45;;;;;;;44.75;37.88;;;16.00;99.90;;;;;;5032309;28;20021;-82
2022/09/09 00:45:14;;;;;;;92.70;64.47;;;15.90;99.90;;;;;;5032053;28;20497;-75
2022/09/09 00:47:49;;;;;;;76.57;58.30;;;16.00;99.90;;;;;;5032066;28;20490;-75
2022/09/09 00:50:55;;;;;;;50.83;38.90;;;16.00;99.90;;;;;;5031751;28;20427;-75
2022/09/09 00:53:54;;;;;;;42.67;25.30;;;16.00;99.90;;;;;;5030886;28;20082;-82
2022/09/09 00:56:26;;;;;;;36.78;23.92;;;16.00;99.90;;;;;;5030864;28;20022;-82
2022/09/09 00:59:10;;;;;;;39.17;24.25;;;16.00;99.90;;;;;;5030585;28;20482;-82
2022/09/09 01:01:36;;;;;;;42.88;28.25;;;15.90;99.90;;;;;;5032152;28;20029;-75
2022/09/09 01:04:09;;;;;;;33.13;22.92;;;16.00;99.90;;;;;;5031938;28;20547;-74
2022/09/09 01:06:38;;;;;;;26.27;20.02;;;16.00;99.90;;;;;;5032090;28;20025;-81
2022/09/09 01:09:42;;;;;;;26.38;19.63;;;15.90;99.90;;;;;;5031464;28;20041;-81
2022/09/09 01:12:16;;;;;;;24.25;18.48;;;15.90;99.90;;;;;;5010188;28;20124;-74
2022/09/09 01:15:17;;;;;;;23.58;18.65;;;15.90;99.90;;;;;;5010050;28;20036;-81
2022/09/09 01:17:51;;;;;;;27.00;20.13;;;15.80;99.90;;;;;;5044324;28;20029;-81
2022/09/09 01:20:23;;;;;;;22.55;18.58;;;15.90;99.90;;;;;;5050345;28;20032;-74
2022/09/09 01:23:19;;;;;;;25.15;20.25;;;15.80;99.90;;;;;;5051693;28;20355;-81
2022/09/09 01:26:04;;;;;;;29.27;23.83;;;15.80;99.90;;;;;;5051476;28;20021;-81
2022/09/09 01:28:30;;;;;;;25.77;20.45;;;15.80;99.90;;;;;;5050073;28;20037;-73
2022/09/09 01:30:58;;;;;;;36.58;28.95;;;15.70;99.90;;;;;;5050067;28;20025;-81
2022/09/09 01:33:24;;;;;;;47.53;37.83;;;15.70;99.90;;;;;;5050077;28;20017;-74
2022/09/09 01:36:08;;;;;;;36.20;28.70;;;15.70;99.90;;;;;;5051391;28;20024;-81
2022/09/09 01:38:34;;;;;;;27.10;21.10;;;15.70;99.90;;;;;;5050074;28;20474;-82
2022/09/09 01:41:00;;;;;;;24.67;19.63;;;15.70;99.90;;;;;;5051034;28;20025;-82
2022/09/09 01:43:26;;;;;;;31.98;20.70;;;15.60;99.90;;;;;;5051163;28;20131;-74
2022/09/09 01:45:58;;;;;;;27.88;20.58;;;15.60;99.90;;;;;;5051052;28;20104;-75
2022/09/09 01:48:25;;;;;;;28.80;21.87;;;15.60;99.90;;;;;;5049646;28;20097;-75
2022/09/09 01:50:51;;;;;;;30.75;23.05;;;15.60;99.90;;;;;;5051083;28;20470;-74
2022/09/09 01:53:18;;;;;;;31.75;22.25;;;15.50;99.90;;;;;;5029891;28;20074;-74
2022/09/09 01:56:05;;;;;;;32.90;23.42;;;15.50;99.90;;;;;;5030973;28;20428;-82
2022/09/09 01:59:05;;;;;;;32.25;22.83;;;15.40;99.90;;;;;;5030289;28;20406;-82
2022/09/09 02:01:49;;;;;;;31.90;24.10;;;15.40;99.90;;;;;;5031088;28;20018;-82
2022/09/09 02:04:43;;;;;;;33.28;23.67;;;15.40;99.90;;;;;;5029651;28;20028;-74
2022/09/09 02:07:23;;;;;;;32.40;21.98;;;15.30;99.90;;;;;;5031023;28;20032;-74
2022/09/09 02:09:57;;;;;;;34.85;22.20;;;15.30;99.90;;;;;;5046017;28;20488;-74
2022/09/09 02:12:25;;;;;;;35.63;24.25;;;15.20;99.90;;;;;;5031659;28;20054;-81
2022/09/09 02:14:59;;;;;;;36.60;25.45;;;15.20;99.90;;;;;;5029514;28;20017;-82
2022/09/09 02:17:33;;;;;;;35.05;24.48;;;15.20;99.90;;;;;;5031051;28;20018;-82
2022/09/09 02:20:06;;;;;;;35.33;24.65;;;15.20;99.90;;;;;;5029435;28;20037;-75
2022/09/09 02:22:34;;;;;;;39.03;24.70;;;15.20;99.90;;;;;;5029534;28;20044;-83
2022/09/09 02:25:01;;;;;;;35.30;23.77;;;15.20;99.90;;;;;;5029440;28;20026;-83
2022/09/09 02:27:27;;;;;;;34.95;23.35;;;15.20;99.90;;;;;;5030782;28;20017;-83
2022/09/09 02:29:56;;;;;;;38.30;26.27;;;15.20;99.90;;;;;;5045976;28;20049;-83
2022/09/09 02:32:24;;;;;;;37.25;26.00;;;15.20;99.90;;;;;;5030497;28;20029;-75
2022/09/09 02:35:02;;;;;;;37.40;25.02;;;15.20;99.90;;;;;;5030662;28;20056;-83
2022/09/09 02:37:35;;;;;;;35.97;25.30;;;15.20;99.90;;;;;;5029075;28;20034;-75
2022/09/09 02:40:02;;;;;;;38.70;25.35;;;15.20;99.90;;;;;;5030633;28;20124;-83
2022/09/09 02:42:28;;;;;;;38.33;25.02;;;15.20;99.90;;;;;;5045776;28;20026;-75
2022/09/09 02:44:54;;;;;;;40.85;25.67;;;15.20;99.90;;;;;;5030435;28;20470;-75
2022/09/09 02:47:31;;;;;;;35.38;23.30;;;15.20;99.90;;;;;;5045552;28;20394;-75
2022/09/09 02:50:11;;;;;;;40.83;26.80;;;15.20;99.90;;;;;;5029139;28;20025;-83
2022/09/09 02:53:11;;;;;;;38.25;26.80;;;15.20;99.90;;;;;;5045101;28;20096;-83
2022/09/09 02:55:54;;;;;;;42.38;26.83;;;15.20;99.90;;;;;;5049110;28;20112;-83
2022/09/09 02:58:20;;;;;;;;;;;15.20;99.90;;;;;;5050543;28;20041;-83
2022/09/09 03:00:47;;;;;;;36.85;24.13;;;15.20;99.90;;;;;;5050238;28;19912;-82
2022/09/09 03:03:13;;;;;;;41.05;27.95;;;15.20;99.90;;;;;;5049987;28;20017;-82
2022/09/09 03:05:39;;;;;;;42.47;28.27;;;15.20;99.90;;;;;;5050047;27;20428;-74
2022/09/09 03:08:05;;;;;;;44.00;28.60;;;15.20;99.90;;;;;;5050076;28;20120;-75
2022/09/09 03:10:31;;;;;;;39.70;27.15;;;15.10;99.90;;;;;;5050421;28;20466;-82
2022/09/09 03:12:57;;;;;;;47.70;29.75;;;15.20;99.90;;;;;;5042932;28;20124;-75
2022/09/09 03:15:23;;;;;;;51.60;31.63;;;15.10;99.90;;;;;;5032298;28;20116;-83
2022/09/09 03:17:49;;;;;;;46.67;29.88;;;15.20;99.90;;;;;;5033490;28;20058;-80
2022/09/09 03:20:14;;;;;;;50.08;31.42;;;15.20;99.90;;;;;;5032297;28;20436;-75
2022/09/09 03:22:40;;;;;;;48.33;30.65;;;15.20;99.90;;;;;;5033593;28;20025;-75
2022/09/09 03:25:06;;;;;;;45.70;30.80;;;15.20;99.90;;;;;;5033428;28;20486;-83
2022/09/09 03:27:32;;;;;;;50.63;30.92;;;15.20;99.90;;;;;;5033313;28;20505;-83
2022/09/09 03:29:58;;;;;;;50.75;33.83;;;15.10;99.90;;;;;;5033285;28;20038;-76
2022/09/09 03:32:25;;;;;;;48.35;32.03;;;15.10;99.90;;;;;;5033350;28;20037;-82
2022/09/09 03:34:51;;;;;;;41.25;27.35;;;15.10;99.90;;;;;;5033385;28;20045;-74
2022/09/09 03:37:17;;;;;;;42.28;28.75;;;15.10;99.90;;;;;;5033200;28;20021;-75
2022/09/09 03:39:43;;;;;;;52.47;33.08;;;15.10;99.90;;;;;;5032137;28;20052;-75
2022/09/09 03:42:10;;;;;;;50.15;31.88;;;15.20;99.90;;;;;;5033067;28;20022;-74
2022/09/09 03:44:35;;;;;;;66.25;35.35;;;15.10;99.90;;;;;;5033192;28;20029;-79
2022/09/09 03:47:01;;;;;;;54.25;33.35;;;15.10;99.90;;;;;;5033007;28;20070;-81
2022/09/09 03:49:28;;;;;;;54.63;31.38;;;15.10;99.90;;;;;;5032971;28;20124;-74
2022/09/09 03:51:56;;;;;;;51.53;33.20;;;15.00;99.90;;;;;;5040736;28;20025;-81
2022/09/09 03:54:22;;;;;;;69.78;37.90;;;15.00;99.90;;;;;;5051585;28;20021;-82
2022/09/09 03:56:48;;;;;;;169.43;44.45;;;14.90;99.90;;;;;;5051619;28;20025;-74
2022/09/09 03:59:14;;;;;;;99.60;37.38;;;14.90;99.90;;;;;;5051543;28;20119;-82
2022/09/09 04:01:39;;;;;;;68.55;34.85;;;14.90;99.90;;;;;;5051385;28;20367;-82
2022/09/09 04:04:05;;;;;;;52.35;32.90;;;14.80;99.90;;;;;;5051485;28;20025;-82
2022/09/09 04:06:31;;;;;;;72.32;35.08;;;14.80;99.90;;;;;;5051355;28;20884;-82
2022/09/09 04:08:56;;;;;;;56.25;33.33;;;14.80;99.90;;;;;;5051462;28;20489;-75
2022/09/09 04:11:22;;;;;;;76.32;40.67;;;14.80;99.90;;;;;;5052797;28;20100;-75
2022/09/09 04:13:49;;;;;;;144.75;49.15;;;14.80;99.90;;;;;;5033441;28;20029;-75
2022/09/09 04:16:14;;;;;;;199.57;62.53;;;14.70;99.90;;;;;;5032644;28;20078;-75
2022/09/09 04:18:40;;;;;;;96.70;60.67;;;14.80;99.90;;;;;;5032601;28;20026;-75
2022/09/09 04:21:06;;;;;;;140.95;80.15;;;14.80;99.90;;;;;;5032284;28;20025;-83
2022/09/09 04:23:34;;;;;;;100.88;61.22;;;14.80;99.90;;;;;;5031318;28;20033;-75
2022/09/09 04:26:01;;;;;;;123.57;58.70;;;14.80;99.90;;;;;;5031226;28;20029;-83
2022/09/09 04:28:31;;;;;;;109.95;49.22;;;14.80;99.90;;;;;;5030845;28;20489;-84
2022/09/09 04:31:08;;;;;;;84.38;46.40;;;14.80;99.90;;;;;;5030879;28;20013;-76
2022/09/09 04:33:34;;;;;;;87.00;41.17;;;14.80;99.90;;;;;;5032290;28;20528;-75
2022/09/09 04:36:00;;;;;;;86.85;41.20;;;14.80;99.90;;;;;;5032360;28;20025;-75
2022/09/09 04:38:26;;;;;;;78.68;38.63;;;14.80;99.90;;;;;;5032137;28;20037;-76
2022/09/09 04:40:53;;;;;;;65.35;36.25;;;14.80;99.90;;;;;;5032181;28;20044;-75
2022/09/09 04:43:20;;;;;;;72.32;36.72;;;14.90;99.90;;;;;;5032215;28;20033;-75
2022/09/09 04:45:51;;;;;;;71.90;37.03;;;14.90;99.90;;;;;;5031626;28;20020;-82
2022/09/09 04:48:17;;;;;;;65.60;35.55;;;15.00;99.90;;;;;;5031693;28;20033;-75
2022/09/09 04:50:42;;;;;;;77.30;37.05;;;14.90;99.90;;;;;;5031988;28;20028;-75
2022/09/09 04:53:08;;;;;;;67.30;33.97;;;14.90;99.90;;;;;;5051039;28;20478;-74
2022/09/09 04:55:34;;;;;;;66.70;34.95;;;15.00;99.90;;;;;;5045114;28;20091;-74
2022/09/09 04:58:08;;;;;;;83.65;40.05;;;15.00;99.90;;;;;;5037187;28;20051;-75
2022/09/09 05:00:35;;;;;;;68.68;34.97;;;15.00;99.90;;;;;;5031976;28;20029;-85
2022/09/09 05:03:05;;;;;;;64.65;36.38;;;15.00;99.90;;;;;;5031772;28;20105;-85
2022/09/09 05:05:31;;;;;;;70.68;35.15;;;15.00;99.90;;;;;;5030255;28;20025;-85
2022/09/09 05:08:08;;;;;;;63.33;34.47;;;15.00;99.90;;;;;;5031686;28;20036;-83
2022/09/09 05:10:37;;;;;;;68.22;36.13;;;15.00;99.90;;;;;;5031616;28;20098;-84
2022/09/09 05:13:04;;;;;;;98.45;40.42;;;15.00;99.90;;;;;;5042860;28;20512;-75
2022/09/09 05:15:29;;;;;;;98.03;42.15;;;15.00;99.90;;;;;;5040207;28;20637;-84
2022/09/09 05:18:00;;;;;;;84.43;39.55;;;15.00;99.90;;;;;;5051546;28;20112;-83
2022/09/09 05:20:26;;;;;;;102.93;43.00;;;15.00;99.90;;;;;;5051928;27;20045;-84
2022/09/09 05:22:56;;;;;;;87.82;43.97;;;15.00;99.90;;;;;;5048815;28;20074;-83
2022/09/09 05:25:22;;;;;;;85.40;44.67;;;15.10;99.90;;;;;;5036227;28;20533;-83
2022/09/09 05:27:49;;;;;;;99.93;48.80;;;15.10;99.90;;;;;;5050033;28;20048;-83
2022/09/09 05:30:14;;;;;;;140.00;59.80;;;15.10;99.90;;;;;;5048063;27;20452;-84
2022/09/09 05:32:40;;;;;;;102.20;50.78;;;15.10;99.90;;;;;;5048087;28;20111;-75
2022/09/09 05:35:06;;;;;;;94.57;44.08;;;15.10;99.90;;;;;;5048657;27;20489;-75
2022/09/09 05:37:32;;;;;;;158.40;73.40;;;15.10;99.90;;;;;;5036275;28;20057;-75
2022/09/09 05:39:57;;;;;;;138.13;61.03;;;15.10;99.90;;;;;;5048399;28;20064;-83
2022/09/09 05:42:23;;;;;;;193.93;67.40;;;15.10;99.90;;;;;;5048837;28;20598;-84
2022/09/09 05:44:50;;;;;;;178.23;67.18;;;15.00;99.90;;;;;;5033526;28;20067;-84
2022/09/09 05:47:17;;;;;;;118.32;49.03;;;15.00;99.90;;;;;;5031081;28;20116;-75
2022/09/09 05:49:43;;;;;;;107.40;46.97;;;15.00;99.90;;;;;;5029832;28;20425;-84
2022/09/09 05:52:09;;;;;;;107.18;45.58;;;15.10;99.90;;;;;;5040959;28;20021;-84
2022/09/09 05:54:35;;;;;;;101.88;46.67;;;15.10;99.90;;;;;;5050910;28;20033;-84
2022/09/09 05:57:01;;;;;;;89.82;42.50;;;15.10;99.90;;;;;;5048246;28;20060;-76
2022/09/09 05:59:27;;;;;;;79.53;39.60;;;15.10;99.90;;;;;;5047033;28;20513;-84
2022/09/09 06:01:52;;;;;;;76.78;38.60;;;15.10;99.90;;;;;;5049638;28;20017;-75
2022/09/09 06:04:20;;;;;;;79.22;39.85;;;15.10;99.90;;;;;;5050312;28;20025;-85
2022/09/09 06:06:46;;;;;;;82.28;41.40;;;15.10;99.90;;;;;;5047726;28;20025;-85
2022/09/09 06:09:11;;;;;;;78.70;39.42;;;15.10;99.90;;;;;;5049880;28;20037;-75
2022/09/09 06:11:38;;;;;;;77.43;40.15;;;15.10;99.90;;;;;;5047336;28;20097;-83
2022/09/09 06:14:05;;;;;;;73.97;37.85;;;15.20;99.90;;;;;;5028934;28;20044;-75
2022/09/09 06:16:34;;;;;;;69.78;38.38;;;15.20;99.90;;;;;;5029701;28;20105;-85
2022/09/09 06:19:02;;;;;;;68.35;35.78;;;15.30;99.90;;;;;;5027517;28;20383;-76
2022/09/09 06:21:39;;;;;;;65.28;34.67;;;15.30;99.90;;;;;;5028866;28;20386;-75
2022/09/09 06:24:07;;;;;;;67.18;35.53;;;15.30;99.90;;;;;;5027349;28;20029;-75
2022/09/09 06:26:34;;;;;;;63.00;34.10;;;15.50;99.90;;;;;;5028881;28;20021;-85
2022/09/09 06:29:03;;;;;;;64.47;34.13;;;15.50;99.90;;;;;;5028592;28;20033;-85
2022/09/09 06:31:31;;;;;;;52.72;31.77;;;15.50;99.90;;;;;;5027401;28;20030;-75
2022/09/09 06:33:58;;;;;;;64.80;36.92;;;15.70;99.90;;;;;;5028676;28;20073;-85
2022/09/09 06:36:29;;;;;;;61.40;34.80;;;15.80;99.90;;;;;;5030665;28;20535;-76
2022/09/09 06:38:55;;;;;;;58.42;33.50;;;16.00;99.90;;;;;;5030639;28;20070;-82
2022/09/09 06:41:28;;;;;;;59.88;34.10;;;16.00;99.90;;;;;;5030510;28;20034;-84
2022/09/09 06:43:57;;;;;;;58.17;31.95;;;16.10;99.90;;;;;;5030383;28;20051;-85
2022/09/09 06:46:29;;;;;;;63.08;35.42;;;16.30;99.90;;;;;;5029337;28;20467;-76
2022/09/09 06:48:58;;;;;;;65.10;34.60;;;16.30;99.90;;;;;;5028944;28;20037;-85
2022/09/09 06:51:29;;;;;;;55.90;33.58;;;16.50;99.90;;;;;;5036419;28;20022;-85
2022/09/09 06:53:56;;;;;;;52.63;32.17;;;16.60;99.90;;;;;;5050230;28;20088;-85
2022/09/09 06:56:27;;;;;;;53.83;32.00;;;16.60;99.90;;;;;;5048974;28;20051;-85
2022/09/09 06:58:53;;;;;;;43.13;27.83;;;16.60;99.90;;;;;;5048715;28;20049;-85
2022/09/09 07:01:24;;;;;;;49.17;29.50;;;16.70;99.90;;;;;;5048846;28;20414;-76
2022/09/09 07:03:52;;;;;;;51.10;30.25;;;16.80;99.90;;;;;;5050040;28;20068;-76
2022/09/09 07:06:19;;;;;;;48.85;28.70;;;16.90;99.90;;;;;;5048995;28;20514;-76
2022/09/09 07:08:52;;;;;;;51.92;31.48;;;16.90;99.90;;;;;;5048867;28;20073;-76
2022/09/09 07:11:20;;;;;;;53.10;31.02;;;17.10;99.90;;;;;;5050136;28;20021;-76
2022/09/09 07:13:46;;;;;;;52.30;29.60;;;17.20;99.90;;;;;;5050098;28;20069;-84
2022/09/09 07:16:14;;;;;;;51.83;31.25;;;17.20;99.90;;;;;;5050015;28;20504;-76
2022/09/09 07:18:40;;;;;;;42.35;27.23;;;17.30;99.90;;;;;;5049969;28;20021;-85
2022/09/09 07:21:06;;;;;;;44.03;26.63;;;17.40;99.90;;;;;;5048543;28;20020;-84
2022/09/09 07:23:32;;;;;;;44.75;26.95;;;17.40;99.90;;;;;;5048497;28;20025;-85
2022/09/09 07:25:58;;;;;;;48.70;27.80;;;17.40;99.90;;;;;;5048638;28;20115;-76
2022/09/09 07:28:30;;;;;;;51.15;28.83;;;17.40;99.90;;;;;;5049855;28;20037;-76
2022/09/09 07:30:58;;;;;;;46.67;27.02;;;17.60;99.90;;;;;;5048711;28;20505;-85
2022/09/09 07:33:25;;;;;;;42.83;27.10;;;17.80;99.90;;;;;;5048488;28;20025;-76
2022/09/09 07:35:51;;;;;;;43.28;26.42;;;17.90;99.90;;;;;;5049584;28;20029;-84
2022/09/09 07:38:18;;;;;;;46.38;26.85;;;18.10;99.90;;;;;;5049721;28;20022;-84
2022/09/09 07:40:44;;;;;;;29.85;21.95;;;18.20;99.90;;;;;;5048432;28;20029;-77
2022/09/09 07:43:10;;;;;;;31.92;19.58;;;18.50;99.90;;;;;;5049626;28;20496;-77
2022/09/09 07:45:36;;;;;;;32.47;20.20;;;18.70;99.90;;;;;;5049588;28;20052;-85
2022/09/09 07:48:02;;;;;;;25.08;17.17;;;18.70;99.90;;;;;;5048411;28;20032;-76
2022/09/09 07:50:28;;;;;;;28.02;19.25;;;18.80;99.90;;;;;;5048350;28;20036;-84
2022/09/09 07:52:54;;;;;;;23.77;16.63;;;18.70;99.90;;;;;;5030672;28;20386;-85
2022/09/09 07:55:26;;;;;;;24.67;16.65;;;18.60;99.90;;;;;;5028378;28;20026;-76
2022/09/09 07:57:53;;;;;;;17.38;13.05;;;18.70;99.90;;;;;;5031789;28;20116;-77
2022/09/09 08:00:21;;;;;;;12.50;10.55;;;18.80;99.90;;;;;;5031481;28;20025;-85
2022/09/09 08:02:47;;;;;;;14.80;10.88;;;18.80;99.90;;;;;;5031734;28;20018;-76
2022/09/09 08:05:13;;;;;;;14.80;12.30;;;19.00;99.90;;;;;;5031660;28;20078;-81
2022/09/09 08:07:39;;;;;;;11.20;9.23;;;19.20;99.90;;;;;;5031689;28;20029;-76
2022/09/09 08:10:06;;;;;;;11.82;9.40;;;19.00;99.90;;;;;;5032910;28;20095;-77
2022/09/09 08:12:32;;;;;;;13.77;9.88;;;18.90;99.90;;;;;;5041449;28;20071;-84
2022/09/09 08:14:57;;;;;;;12.77;9.13;;;19.00;99.90;;;;;;5052675;28;20390;-77
2022/09/09 08:17:23;;;;;;;14.02;9.68;;;19.10;99.90;;;;;;5052768;28;20013;-77
2022/09/09 08:19:49;;;;;;;10.88;8.88;;;19.10;99.90;;;;;;5052348;28;20047;-84
2022/09/09 08:22:14;;;;;;;11.07;8.68;;;19.20;99.90;;;;;;5050978;28;20028;-76
2022/09/09 08:24:40;;;;;;;12.02;10.15;;;19.30;99.90;;;;;;5052246;28;20029;-76
2022/09/09 08:27:06;;;;;;;7.72;6.93;;;19.50;99.90;;;;;;5050867;28;20025;-76
2022/09/09 08:29:32;;;;;;;8.75;7.35;;;19.50;99.90;;;;;;5050888;28;20040;-77
2022/09/09 08:31:59;;;;;;;8.77;7.28;;;19.50;99.90;;;;;;5051958;28;20021;-76
2022/09/09 08:34:26;;;;;;;10.35;7.95;;;19.60;99.90;;;;;;5052049;28;20086;-77
2022/09/09 08:36:53;;;;;;;9.82;7.30;;;19.80;99.90;;;;;;5050635;28;20021;-76
2022/09/09 08:39:20;;;;;;;9.95;8.40;;;19.80;99.90;;;;;;5051946;28;20035;-76
2022/09/09 08:42:11;;;;;;;12.43;8.25;;;20.00;99.90;;;;;;5043301;28;20025;-77
2022/09/09 08:44:49;;;;;;;6.75;5.03;;;20.00;99.90;;;;;;5049947;28;20025;-76
2022/09/09 08:47:33;;;;;;;6.40;5.43;;;19.80;99.90;;;;;;5049954;28;20028;-83
2022/09/09 08:50:05;;;;;;;10.45;7.53;;;19.90;99.90;;;;;;5051211;28;20402;-85
2022/09/09 08:52:45;;;;;;;7.65;6.88;;;19.80;99.90;;;;;;5033852;28;20028;-85
2022/09/09 08:55:24;;;;;;;6.72;5.75;;;19.80;99.90;;;;;;5030111;28;20026;-76
2022/09/09 08:57:53;;;;;;;6.60;5.63;;;19.90;99.90;;;;;;5031059;28;20021;-77
2022/09/09 09:00:20;;;;;;;7.25;4.82;;;19.90;99.90;;;;;;5031321;28;20075;-85
2022/09/09 09:02:55;;;;;;;7.13;5.10;;;19.90;99.90;;;;;;5031190;28;20109;-85
2022/09/09 09:05:32;;;;;;;7.00;4.72;;;19.80;99.90;;;;;;5029858;28;20486;-76
2022/09/09 09:08:23;;;;;;;5.63;4.15;;;19.70;99.90;;;;;;5030787;28;20385;-76
2022/09/09 09:10:50;;;;;;;5.85;4.40;;;19.70;99.90;;;;;;5048936;28;20089;-77
2022/09/09 09:13:20;;;;;;;4.40;3.92;;;19.70;99.90;;;;;;5035883;28;20038;-85
2022/09/09 09:15:52;;;;;;;4.57;3.90;;;19.70;99.90;;;;;;5029615;28;20022;-85
2022/09/09 09:18:18;;;;;;;4.93;4.30;;;19.80;99.90;;;;;;5029657;28;20025;-85
2022/09/09 09:20:58;;;;;;;6.22;3.60;;;19.90;99.90;;;;;;5030947;28;20108;-78
2022/09/09 09:23:26;;;;;;;3.75;3.45;;;20.00;99.90;;;;;;5030847;28;20078;-76
2022/09/09 09:25:58;;;;;;;3.65;2.75;;;20.30;99.90;;;;;;5030197;28;20025;-85
2022/09/09 09:28:25;;;;;;;;;;;20.40;99.10;;;;;;5028614;28;20061;-85
2022/09/09 09:31:07;;;;;;;2.42;2.28;;;20.60;92.60;;;;;;5029482;28;20410;-85
2022/09/09 09:33:49;;;;;;;3.83;3.42;;;20.90;92.30;;;;;;5029479;28;20108;-85
2022/09/09 09:36:15;;;;;;;4.05;3.35;;;20.80;92.30;;;;;;5034883;28;20501;-76
2022/09/09 09:38:54;;;;;;;3.80;3.35;;;20.70;98.40;;;;;;5031264;28;20029;-78
2022/09/09 09:41:30;;;;;;;1.80;1.70;;;20.70;99.90;;;;;;5030449;28;20025;-85
2022/09/09 09:43:56;;;;;;;2.10;2.00;;;20.60;85.70;;;;;;5030077;28;20021;-85
2022/09/09 09:46:25;;;;;;;3.10;2.53;;;20.70;90.50;;;;;;5030641;28;20145;-76
2022/09/09 09:49:02;;;;;;;3.42;2.58;;;20.80;89.90;;;;;;5029929;28;20390;-76
2022/09/09 09:51:31;;;;;;;6.50;2.88;;;20.80;85.90;;;;;;5029825;28;20018;-76
2022/09/09 09:54:27;;;;;;;3.38;3.10;;;20.80;88.20;;;;;;5029529;28;20027;-76
2022/09/09 09:56:53;;;;;;;2.95;2.75;;;20.70;89.60;;;;;;5045688;28;20381;-76
2022/09/09 09:59:27;;;;;;;3.95;2.50;;;20.80;90.60;;;;;;5050069;28;20052;-76
2022/09/09 10:01:53;;;;;;;2.47;2.25;;;20.90;86.40;;;;;;5050784;28;20465;-84
2022/09/09 10:04:23;;;;;;;4.13;2.05;;;21.20;85.50;;;;;;5049636;28;20069;-85
2022/09/09 10:06:50;;;;;;;2.17;1.90;;;21.30;82.50;;;;;;5036365;28;20071;-85
2022/09/09 10:09:26;;;;;;;2.78;1.95;;;21.50;77.90;;;;;;5029523;28;20131;-84
2022/09/09 10:12:16;;;;;;;2.20;2.00;;;21.50;78.20;;;;;;5032543;28;20024;-77
2022/09/09 10:15:10;;;;;;;1.88;1.77;;;21.40;78.80;;;;;;5050971;28;20098;-84
2022/09/09 10:18:02;;;;;;;1.88;1.75;;;21.30;77.90;;;;;;5047203;28;20059;-77
2022/09/09 10:20:54;;;;;;;3.13;1.88;;;21.60;76.70;;;;;;5049513;28;20064;-77
2022/09/09 10:23:38;;;;;;;2.45;2.25;;;21.80;73.90;;;;;;5050362;28;20100;-77
2022/09/09 10:26:48;;;;;;;1.90;1.80;;;22.20;75.00;;;;;;5049323;28;20393;-85
2022/09/09 10:29:29;;;;;;;3.58;1.80;;;22.50;76.70;;;;;;5049121;28;20033;-85
2022/09/09 10:32:22;;;;;;;2.03;1.60;;;22.70;68.50;;;;;;5049352;28;20021;-85
2022/09/09 10:34:57;;;;;;;1.92;1.80;;;22.80;67.10;;;;;;5049136;28;20049;-85
2022/09/09 10:37:46;;;;;;;2.45;1.30;;;22.80;64.50;;;;;;5042251;28;20373;-77
2022/09/09 10:40:32;;;;;;;1.92;1.80;;;23.10;65.00;;;;;;5042736;28;20085;-77
2022/09/09 10:43:08;;;;;;;2.20;2.00;;;22.80;67.20;;;;;;5047961;28;21288;-77
2022/09/09 10:45:57;;;;;;;2.60;1.67;;;22.80;67.90;;;;;;5051622;28;20025;-86
2022/09/09 10:48:48;;;;;;;1.98;1.88;;;22.50;67.50;;;;;;5043167;28;20026;-78
2022/09/09 10:51:32;;;;;;;2.65;1.70;;;22.50;69.50;;;;;;5046019;28;20355;-78
2022/09/09 10:54:25;;;;;;;3.15;2.30;;;22.50;70.40;;;;;;5046499;28;20081;-86
2022/09/09 10:57:18;;;;;;;2.40;2.20;;;22.30;73.30;;;;;;5039079;28;20405;-87
2022/09/09 10:59:51;;;;;;;3.35;2.15;;;22.20;72.50;;;;;;5037424;28;20068;-86
2022/09/09 11:02:28;;;;;;;2.58;1.80;;;22.00;73.70;;;;;;5048375;28;20435;-86
2022/09/09 11:05:03;;;;;;;2.40;1.67;;;22.00;73.70;;;;;;5046084;28;20036;-87
2022/09/09 11:07:39;;;;;;;2.95;2.20;;;21.90;70.20;;;;;;5047100;28;20040;-87
2022/09/09 11:10:14;;;;;;;2.30;2.08;;;21.80;73.00;;;;;;5031952;28;20050;-87
2022/09/09 11:12:45;;;;;;;2.05;1.95;;;21.80;72.90;;;;;;5040312;28;20469;-77
2022/09/09 11:15:22;;;;;;;2.05;1.92;;;21.80;76.00;;;;;;5046805;27;20029;-86
2022/09/09 11:17:54;;;;;;;4.43;1.98;;;21.80;72.00;;;;;;5035335;28;20078;-77
2022/09/09 11:20:20;;;;;;;2.17;1.98;;;22.00;75.30;;;;;;5047607;27;20033;-86
2022/09/09 11:22:51;;;;;;;3.47;2.45;;;22.20;74.80;;;;;;5046322;28;20074;-87
2022/09/09 11:25:30;;;;;;;1.80;1.70;;;22.40;71.80;;;;;;5048104;28;20115;-87
2022/09/09 11:28:22;;;;;;;2.20;2.00;;;22.70;69.20;;;;;;5047336;28;20355;-77
2022/09/09 11:31:09;;;;;;;1.60;1.48;;;23.00;69.90;;;;;;5049469;27;20033;-87
2022/09/09 11:33:41;;;;;;;1.63;1.52;;;23.20;68.30;;;;;;5050944;28;20028;-77
2022/09/09 11:36:16;;;;;;;1.98;1.73;;;23.00;64.70;;;;;;5050682;28;20041;-77
2022/09/09 11:38:46;;;;;;;1.70;1.60;;;22.80;65.70;;;;;;5050113;28;20580;-78
2022/09/09 11:41:13;;;;;;;1.50;1.40;;;22.80;67.60;;;;;;5044686;28;20125;-77
2022/09/09 11:43:51;;;;;;;1.80;1.45;;;22.60;65.40;;;;;;5050363;28;20112;-86
2022/09/09 11:46:20;;;;;;;1.40;1.30;;;22.60;65.70;;;;;;5050885;28;20025;-86
2022/09/09 11:49:01;;;;;;;1.52;1.42;;;22.50;66.10;;;;;;5049384;28;20029;-77
2022/09/09 11:51:32;;;;;;;2.50;1.50;;;22.50;63.90;;;;;;5044196;27;20058;-77
2022/09/09 11:54:21;;;;;;;3.33;1.60;;;22.70;65.90;;;;;;5038075;27;20079;-77
2022/09/09 11:56:47;;;;;;;1.67;1.50;;;22.70;67.40;;;;;;5047043;28;20029;-77
2022/09/09 11:59:25;;;;;;;3.25;1.60;;;22.60;65.80;;;;;;5051648;28;20102;-77
2022/09/09 12:02:11;;;;;;;1.75;1.60;;;22.60;65.50;;;;;;5037454;28;20037;-86
2022/09/09 12:04:44;;;;;;;2.15;1.58;;;22.70;67.70;;;;;;5037000;27;20029;-87
2022/09/09 12:07:11;;;;;;;2.05;1.42;;;22.60;65.60;;;;;;5050010;28;20017;-86
2022/09/09 12:09:48;;;;;;;1.73;1.63;;;22.80;67.10;;;;;;5050852;28;20037;-77
2022/09/09 12:12:14;;;;;;;2.53;1.80;;;22.90;63.60;;;;;;5048321;28;20073;-77
2022/09/09 12:14:57;;;;;;;1.80;1.67;;;23.10;65.30;;;;;;5049793;28;20029;-81
2022/09/09 12:17:25;;;;;;;1.80;1.70;;;23.10;64.70;;;;;;5050714;28;20029;-77
2022/09/09 12:20:13;;;;;;;2.20;1.63;;;22.90;65.00;;;;;;5044907;28;20382;-78
2022/09/09 12:23:14;;;;;;;1.80;1.60;;;22.90;66.30;;;;;;5040399;28;20021;-77
2022/09/09 12:25:57;;;;;;;1.75;1.65;;;22.90;65.60;;;;;;5041596;28;20048;-86
2022/09/09 12:28:40;;;;;;;1.95;1.52;;;23.00;63.80;;;;;;5048963;28;20025;-86
2022/09/09 12:31:30;;;;;;;1.63;1.52;;;23.00;60.60;;;;;;5046437;28;20034;-77
2022/09/09 12:34:24;;;;;;;1.70;1.60;;;23.00;59.40;;;;;;5041554;28;20577;-77
2022/09/09 12:36:57;;;;;;;1.40;1.30;;;23.10;61.20;;;;;;5028517;28;20025;-86
2022/09/09 12:39:33;;;;;;;5.75;1.98;;;23.20;61.40;;;;;;5039784;28;20022;-87
2022/09/09 12:41:59;;;;;;;1.67;1.48;;;23.10;60.20;;;;;;5043909;28;20040;-87
2022/09/09 12:44:28;;;;;;;2.53;2.10;;;23.10;59.70;;;;;;5019666;28;20026;-87
2022/09/09 12:46:55;;;;;;;2.55;1.90;;;23.10;61.70;;;;;;5040425;28;20036;-86
2022/09/09 12:49:34;;;;;;;2.50;1.83;;;23.30;61.90;;;;;;5042240;28;20177;-87
2022/09/09 12:52:21;;;;;;;2.72;1.92;;;23.20;60.70;;;;;;5041340;28;20097;-78
2022/09/09 12:54:48;;;;;;;2.75;1.73;;;23.10;60.80;;;;;;5043722;28;20504;-78
2022/09/09 12:57:15;;;;;;;2.42;2.25;;;23.20;60.50;;;;;;5049334;28;20044;-78
2022/09/09 12:59:44;;;;;;;3.50;2.20;;;23.40;59.50;;;;;;5050594;28;20049;-78